Current | Forecast
Updated: 11:00 PM JST on June 29, 2017
Observed at Kitakyushu, Japan
Temperature 73°F
Humidity 94%
Dew Point 72°F
Wind East at 7 mph
Pressure 29.89 in (Rising)
Conditions Light Rain Showers
Visibility 3.1 miles
UV 0 out of 16
Clouds (FEW) : 500 ft
Mostly Cloudy (BKN) : 1500 ft
Mostly Cloudy (BKN) : 4000 ft
Yesterday's Maximum 77°F
Yesterday's Minimum 72°F approx.
Yesterday's Cooling Degree Days 9 approx.
Sunrise5:08 AM JST
Sunset7:31 PM JST
Moon Rise10:29 AM JST
Moon Set11:30 PM JST
Moon PhaseMoon Phase
Waxing Crescent
Raw METARMETAR RJFR 291400Z 08006KT 050V120 5000 -SHRA FEW005 BKN015 BKN040 23/22 Q1012


Monday
. High: 73° F.
Tuesday
. High: 71° F.
Wednesday
. High: 68° F.
Thursday
. High: 73° F.
Friday
. High: 71° F.
Saturday
. High: 69° F.
Sunday
. High: 73° F.
Monday
. High: 75° F.

Units: English | Metric

Find the Weather for any City, State or Zipcode, or Country:

U.S. State List | Severe Weather | Tropical Storms | Ski Conditions
United States | Canada | Central America | South America | Asia | Europe | Australia | Africa | Islands

Weather Underground

© Copyright 2017
The Weather Company, LLC